Philadelphia, PA

11:00 PM EST on January 30, 2015 (GMT -0500)
Somerton | Change Station
CLOSE
Current Station
Personal Weather Station
Location: Philadelphia, PA
Elevation: 167 ft
Nearby Weather Stations
Active Advisory: Wind Advisory Active Notice: Public Information Statement

Elev 167 ft 40.13 °N, 75.00 °W | Updated 4 minutes ago

Clear
Clear
19.9 °F
Feels Like 12 °F
N
5.8
Wind Variable Wind from NE

Today
High -- | Low -- °F
--% Chance of Precip.
Yesterday
High -- | Low -- °F
Precip. -- in
7:10 AM 5:16 PM
Waxing Gibbous, 87% visible
Pressure 30.12 in
Visibility 10.0 miles
Clouds Clear
Windchill 12 °F
Dew Point 10 °F
Humidity 64%
Rainfall 0.02 in
Snow Depth Not available.
UV 0 out of 12
Pollen .10 out of 12
Air Quality Not available.
Flu Activity Not available.
METAR KPNE 310354Z 31013G21KT 10SM CLR M06/M15 A3012 RMK AO2 PK WND 32028/0339 SLP200 T10561150

More Conditions Fewer Conditions

Pressure 30.12 in
Visibility 10.0 miles
Clouds Clear
Windchill 12 °F
Dew Point 10 °F
Humidity 64%
Rainfall 0.02 in
Snow Depth Not available.
UV 0 out of 12
Pollen .10 out of 12
Air Quality Not available.
Flu Activity Not available.
METAR KPNE 310354Z 31013G21KT 10SM CLR M06/M15 A3012 RMK AO2 PK WND 32028/0339 SLP200 T10561150

More Conditions Fewer Conditions

10-Day Weather Forecast

Almanac

Astronomy

Jan. 30, 2015 Rise Set
Actual Time
Civil Twilight
Nautical Twilight
Astronomical Twilight
Moon
Length of Visible Light
Length of Day
Tomorrow will be .
, % of the Moon is Illuminated

Today's Extremes

State Highs State Lows

Community

WunderPhotos

Upload Photos

1,791,998 photos uploaded!

WunderBlogs® & News

Nearby

Air Quality

  Air Quality AQ Index Pollutant
Not available.

Snow Depth

Station Depth Elevation

Earthquake Activity

City Distance Mag. Time & Date
Minimum magnitude displayed is 2.5.

Coastal Water Temperatures

Place Temperature

Nearby Weather Stations